sensor_id;sensor_type;location;lat;lon;timestamp;P1;durP1;ratioP1;P2;durP2;ratioP2
7919;SDS011;18778;47.610;9.776;2023-02-23T00:01:00;26.67;;;18.77;;
7919;SDS011;18778;47.610;9.776;2023-02-23T00:03:26;25.33;;;17.90;;
7919;SDS011;18778;47.610;9.776;2023-02-23T00:05:52;25.20;;;18.40;;
7919;SDS011;18778;47.610;9.776;2023-02-23T00:08:18;28.17;;;20.10;;
7919;SDS011;18778;47.610;9.776;2023-02-23T00:10:44;29.23;;;19.33;;
7919;SDS011;18778;47.610;9.776;2023-02-23T00:13:10;26.50;;;19.03;;
7919;SDS011;18778;47.610;9.776;2023-02-23T00:15:36;30.63;;;22.27;;
7919;SDS011;18778;47.610;9.776;2023-02-23T00:18:02;30.73;;;20.97;;
7919;SDS011;18778;47.610;9.776;2023-02-23T00:20:28;28.17;;;19.63;;
7919;SDS011;18778;47.610;9.776;2023-02-23T00:22:55;27.83;;;19.00;;
7919;SDS011;18778;47.610;9.776;2023-02-23T00:25:21;33.43;;;22.23;;
7919;SDS011;18778;47.610;9.776;2023-02-23T00:27:48;27.07;;;18.57;;
7919;SDS011;18778;47.610;9.776;2023-02-23T00:30:14;26.30;;;19.37;;
7919;SDS011;18778;47.610;9.776;2023-02-23T00:32:42;31.50;;;18.80;;
7919;SDS011;18778;47.610;9.776;2023-02-23T00:35:08;26.30;;;17.60;;
7919;SDS011;18778;47.610;9.776;2023-02-23T00:37:41;24.53;;;19.37;;
7919;SDS011;18778;47.610;9.776;2023-02-23T00:40:07;28.17;;;19.53;;
7919;SDS011;18778;47.610;9.776;2023-02-23T00:42:37;29.27;;;20.53;;
7919;SDS011;18778;47.610;9.776;2023-02-23T00:45:04;30.00;;;21.33;;
7919;SDS011;18778;47.610;9.776;2023-02-23T00:47:35;36.40;;;24.17;;
7919;SDS011;18778;47.610;9.776;2023-02-23T00:50:01;36.50;;;23.77;;
7919;SDS011;18778;47.610;9.776;2023-02-23T00:52:28;28.97;;;20.40;;
7919;SDS011;18778;47.610;9.776;2023-02-23T00:54:54;30.60;;;21.80;;
7919;SDS011;18778;47.610;9.776;2023-02-23T00:57:20;35.63;;;24.33;;
7919;SDS011;18778;47.610;9.776;2023-02-23T00:59:46;37.13;;;24.00;;
7919;SDS011;18778;47.610;9.776;2023-02-23T01:02:12;38.40;;;23.57;;
7919;SDS011;18778;47.610;9.776;2023-02-23T01:04:38;39.37;;;25.63;;
7919;SDS011;18778;47.610;9.776;2023-02-23T01:07:04;38.57;;;25.83;;
7919;SDS011;18778;47.610;9.776;2023-02-23T01:09:30;35.37;;;24.47;;
7919;SDS011;18778;47.610;9.776;2023-02-23T01:11:57;36.27;;;24.17;;
7919;SDS011;18778;47.610;9.776;2023-02-23T01:14:25;35.67;;;24.93;;
7919;SDS011;18778;47.610;9.776;2023-02-23T01:16:52;37.93;;;24.23;;
7919;SDS011;18778;47.610;9.776;2023-02-23T01:19:18;40.53;;;24.50;;
7919;SDS011;18778;47.610;9.776;2023-02-23T01:21:44;38.00;;;24.30;;
7919;SDS011;18778;47.610;9.776;2023-02-23T01:24:11;41.20;;;27.47;;
7919;SDS011;18778;47.610;9.776;2023-02-23T01:26:38;41.30;;;24.80;;
7919;SDS011;18778;47.610;9.776;2023-02-23T01:29:05;36.80;;;23.57;;
7919;SDS011;18778;47.610;9.776;2023-02-23T01:31:35;33.43;;;23.13;;
7919;SDS011;18778;47.610;9.776;2023-02-23T01:34:02;36.13;;;24.00;;
7919;SDS011;18778;47.610;9.776;2023-02-23T01:36:30;31.97;;;22.40;;
7919;SDS011;18778;47.610;9.776;2023-02-23T01:38:57;31.87;;;21.87;;
7919;SDS011;18778;47.610;9.776;2023-02-23T01:41:24;31.43;;;22.43;;
7919;SDS011;18778;47.610;9.776;2023-02-23T01:46:23;34.60;;;23.97;;
7919;SDS011;18778;47.610;9.776;2023-02-23T01:48:48;33.30;;;22.13;;
7919;SDS011;18778;47.610;9.776;2023-02-23T01:51:17;35.57;;;24.37;;
7919;SDS011;18778;47.610;9.776;2023-02-23T01:53:45;36.33;;;24.27;;
7919;SDS011;18778;47.610;9.776;2023-02-23T01:56:14;35.80;;;23.70;;
7919;SDS011;18778;47.610;9.776;2023-02-23T01:58:43;36.43;;;24.50;;
7919;SDS011;18778;47.610;9.776;2023-02-23T02:01:10;37.67;;;25.77;;
7919;SDS011;18778;47.610;9.776;2023-02-23T02:03:37;36.03;;;24.47;;
7919;SDS011;18778;47.610;9.776;2023-02-23T02:06:05;37.70;;;26.47;;
7919;SDS011;18778;47.610;9.776;2023-02-23T02:08:34;41.93;;;27.77;;
7919;SDS011;18778;47.610;9.776;2023-02-23T02:11:07;41.97;;;27.30;;
7919;SDS011;18778;47.610;9.776;2023-02-23T02:13:49;41.20;;;27.03;;
7919;SDS011;18778;47.610;9.776;2023-02-23T02:16:39;45.03;;;27.60;;
7919;SDS011;18778;47.610;9.776;2023-02-23T02:22:02;38.00;;;25.97;;
7919;SDS011;18778;47.610;9.776;2023-02-23T02:25:35;43.33;;;27.30;;
7919;SDS011;18778;47.610;9.776;2023-02-23T02:27:39;41.47;;;25.90;;
7919;SDS011;18778;47.610;9.776;2023-02-23T02:37:50;40.70;;;27.33;;
7919;SDS011;18778;47.610;9.776;2023-02-23T02:40:30;41.47;;;27.57;;
7919;SDS011;18778;47.610;9.776;2023-02-23T02:43:02;41.73;;;28.07;;
7919;SDS011;18778;47.610;9.776;2023-02-23T02:45:48;49.17;;;28.30;;
7919;SDS011;18778;47.610;9.776;2023-02-23T02:48:17;41.97;;;28.07;;
7919;SDS011;18778;47.610;9.776;2023-02-23T02:50:52;49.67;;;29.23;;
7919;SDS011;18778;47.610;9.776;2023-02-23T02:53:27;38.97;;;27.23;;
7919;SDS011;18778;47.610;9.776;2023-02-23T02:55:56;44.13;;;28.57;;
7919;SDS011;18778;47.610;9.776;2023-02-23T02:58:24;45.47;;;29.73;;
7919;SDS011;18778;47.610;9.776;2023-02-23T03:00:51;48.23;;;30.43;;
7919;SDS011;18778;47.610;9.776;2023-02-23T03:03:43;47.53;;;30.93;;
7919;SDS011;18778;47.610;9.776;2023-02-23T03:06:30;53.70;;;31.60;;
7919;SDS011;18778;47.610;9.776;2023-02-23T03:09:23;49.77;;;32.63;;
7919;SDS011;18778;47.610;9.776;2023-02-23T03:12:22;53.90;;;31.60;;
7919;SDS011;18778;47.610;9.776;2023-02-23T03:15:15;51.83;;;32.07;;
7919;SDS011;18778;47.610;9.776;2023-02-23T03:18:08;51.93;;;31.87;;
7919;SDS011;18778;47.610;9.776;2023-02-23T03:21:01;49.30;;;31.80;;
7919;SDS011;18778;47.610;9.776;2023-02-23T03:23:55;46.43;;;31.10;;
7919;SDS011;18778;47.610;9.776;2023-02-23T03:26:44;45.50;;;28.70;;
7919;SDS011;18778;47.610;9.776;2023-02-23T03:32:35;54.17;;;31.93;;
7919;SDS011;18778;47.610;9.776;2023-02-23T03:35:22;50.97;;;33.00;;
7919;SDS011;18778;47.610;9.776;2023-02-23T03:38:10;47.70;;;30.10;;
7919;SDS011;18778;47.610;9.776;2023-02-23T03:40:57;49.73;;;31.80;;
7919;SDS011;18778;47.610;9.776;2023-02-23T03:43:51;52.37;;;31.77;;
7919;SDS011;18778;47.610;9.776;2023-02-23T03:46:37;50.73;;;30.77;;
7919;SDS011;18778;47.610;9.776;2023-02-23T03:49:23;51.40;;;31.43;;
7919;SDS011;18778;47.610;9.776;2023-02-23T03:52:13;48.90;;;29.90;;
7919;SDS011;18778;47.610;9.776;2023-02-23T03:55:00;52.30;;;31.07;;
7919;SDS011;18778;47.610;9.776;2023-02-23T03:57:46;48.30;;;30.03;;
7919;SDS011;18778;47.610;9.776;2023-02-23T04:00:35;45.13;;;29.50;;
7919;SDS011;18778;47.610;9.776;2023-02-23T04:03:20;47.07;;;29.70;;
7919;SDS011;18778;47.610;9.776;2023-02-23T04:06:06;44.90;;;29.43;;
7919;SDS011;18778;47.610;9.776;2023-02-23T04:08:51;44.27;;;27.97;;
7919;SDS011;18778;47.610;9.776;2023-02-23T04:14:39;44.97;;;28.33;;
7919;SDS011;18778;47.610;9.776;2023-02-23T04:17:06;46.27;;;28.93;;
7919;SDS011;18778;47.610;9.776;2023-02-23T04:19:33;42.27;;;27.43;;
7919;SDS011;18778;47.610;9.776;2023-02-23T04:21:59;44.30;;;27.80;;
7919;SDS011;18778;47.610;9.776;2023-02-23T04:24:25;41.27;;;26.87;;
7919;SDS011;18778;47.610;9.776;2023-02-23T04:26:51;43.80;;;28.00;;
7919;SDS011;18778;47.610;9.776;2023-02-23T04:29:17;44.57;;;29.13;;
7919;SDS011;18778;47.610;9.776;2023-02-23T04:31:43;47.47;;;28.77;;
7919;SDS011;18778;47.610;9.776;2023-02-23T04:34:09;50.37;;;31.63;;
7919;SDS011;18778;47.610;9.776;2023-02-23T04:36:35;47.47;;;30.23;;
7919;SDS011;18778;47.610;9.776;2023-02-23T04:39:02;54.10;;;29.07;;
7919;SDS011;18778;47.610;9.776;2023-02-23T04:41:28;56.47;;;33.23;;
7919;SDS011;18778;47.610;9.776;2023-02-23T04:43:53;50.97;;;30.33;;
7919;SDS011;18778;47.610;9.776;2023-02-23T04:46:19;52.63;;;30.83;;
7919;SDS011;18778;47.610;9.776;2023-02-23T04:48:45;49.83;;;28.93;;
7919;SDS011;18778;47.610;9.776;2023-02-23T04:51:11;49.93;;;29.53;;
7919;SDS011;18778;47.610;9.776;2023-02-23T04:53:37;44.50;;;29.83;;
7919;SDS011;18778;47.610;9.776;2023-02-23T04:56:03;51.03;;;31.53;;
7919;SDS011;18778;47.610;9.776;2023-02-23T04:58:29;50.87;;;30.53;;
7919;SDS011;18778;47.610;9.776;2023-02-23T05:01:02;51.27;;;32.13;;
7919;SDS011;18778;47.610;9.776;2023-02-23T05:03:28;52.17;;;31.37;;
7919;SDS011;18778;47.610;9.776;2023-02-23T05:05:54;50.90;;;31.40;;
7919;SDS011;18778;47.610;9.776;2023-02-23T05:08:20;49.50;;;31.27;;
7919;SDS011;18778;47.610;9.776;2023-02-23T05:10:46;48.00;;;30.77;;
7919;SDS011;18778;47.610;9.776;2023-02-23T05:13:12;44.60;;;30.37;;
7919;SDS011;18778;47.610;9.776;2023-02-23T05:15:38;47.17;;;31.80;;
7919;SDS011;18778;47.610;9.776;2023-02-23T05:18:04;49.27;;;32.87;;
7919;SDS011;18778;47.610;9.776;2023-02-23T05:20:31;53.60;;;33.67;;
7919;SDS011;18778;47.610;9.776;2023-02-23T05:22:57;54.80;;;33.90;;
7919;SDS011;18778;47.610;9.776;2023-02-23T05:25:23;59.67;;;34.40;;
7919;SDS011;18778;47.610;9.776;2023-02-23T05:27:49;59.73;;;37.60;;
7919;SDS011;18778;47.610;9.776;2023-02-23T05:30:15;64.17;;;36.87;;
7919;SDS011;18778;47.610;9.776;2023-02-23T05:32:41;59.13;;;35.23;;
7919;SDS011;18778;47.610;9.776;2023-02-23T05:35:08;56.40;;;35.27;;
7919;SDS011;18778;47.610;9.776;2023-02-23T05:37:35;64.77;;;37.30;;
7919;SDS011;18778;47.610;9.776;2023-02-23T05:40:01;72.60;;;38.30;;
7919;SDS011;18778;47.610;9.776;2023-02-23T05:42:27;74.40;;;38.97;;
7919;SDS011;18778;47.610;9.776;2023-02-23T05:44:53;69.73;;;38.53;;
7919;SDS011;18778;47.610;9.776;2023-02-23T05:47:19;79.70;;;42.90;;
7919;SDS011;18778;47.610;9.776;2023-02-23T05:49:45;79.13;;;42.67;;
7919;SDS011;18778;47.610;9.776;2023-02-23T05:52:11;82.20;;;44.47;;
7919;SDS011;18778;47.610;9.776;2023-02-23T05:54:37;92.30;;;48.57;;
7919;SDS011;18778;47.610;9.776;2023-02-23T05:57:03;95.33;;;49.07;;
7919;SDS011;18778;47.610;9.776;2023-02-23T05:59:29;92.60;;;48.47;;
7919;SDS011;18778;47.610;9.776;2023-02-23T06:01:55;97.50;;;49.63;;
7919;SDS011;18778;47.610;9.776;2023-02-23T06:04:21;93.07;;;50.33;;
7919;SDS011;18778;47.610;9.776;2023-02-23T06:06:48;102.17;;;52.33;;
7919;SDS011;18778;47.610;9.776;2023-02-23T06:09:14;118.60;;;56.73;;
7919;SDS011;18778;47.610;9.776;2023-02-23T06:11:40;112.30;;;55.97;;
7919;SDS011;18778;47.610;9.776;2023-02-23T06:14:06;98.33;;;53.23;;
7919;SDS011;18778;47.610;9.776;2023-02-23T06:16:32;112.37;;;55.07;;
7919;SDS011;18778;47.610;9.776;2023-02-23T06:18:58;117.37;;;55.23;;
7919;SDS011;18778;47.610;9.776;2023-02-23T06:21:24;120.13;;;58.83;;
7919;SDS011;18778;47.610;9.776;2023-02-23T06:23:50;134.80;;;62.67;;
7919;SDS011;18778;47.610;9.776;2023-02-23T06:26:17;140.53;;;66.43;;
7919;SDS011;18778;47.610;9.776;2023-02-23T06:28:44;158.93;;;77.67;;
7919;SDS011;18778;47.610;9.776;2023-02-23T06:31:10;152.17;;;70.97;;
7919;SDS011;18778;47.610;9.776;2023-02-23T06:33:36;155.80;;;72.53;;
7919;SDS011;18778;47.610;9.776;2023-02-23T06:36:02;249.23;;;72.10;;
7919;SDS011;18778;47.610;9.776;2023-02-23T06:38:28;456.47;;;79.47;;
7919;SDS011;18778;47.610;9.776;2023-02-23T06:40:54;653.60;;;93.27;;
7919;SDS011;18778;47.610;9.776;2023-02-23T06:43:20;241.47;;;71.47;;
7919;SDS011;18778;47.610;9.776;2023-02-23T06:45:46;539.83;;;80.57;;
7919;SDS011;18778;47.610;9.776;2023-02-23T06:48:12;386.17;;;77.57;;
7919;SDS011;18778;47.610;9.776;2023-02-23T06:50:38;258.83;;;68.57;;
7919;SDS011;18778;47.610;9.776;2023-02-23T06:53:04;165.97;;;62.37;;
7919;SDS011;18778;47.610;9.776;2023-02-23T06:55:30;145.03;;;58.50;;
7919;SDS011;18778;47.610;9.776;2023-02-23T06:57:56;181.17;;;58.20;;
7919;SDS011;18778;47.610;9.776;2023-02-23T07:00:22;135.87;;;55.20;;
7919;SDS011;18778;47.610;9.776;2023-02-23T07:02:48;117.13;;;51.80;;
7919;SDS011;18778;47.610;9.776;2023-02-23T07:05:15;147.63;;;53.67;;
7919;SDS011;18778;47.610;9.776;2023-02-23T07:07:41;109.20;;;52.80;;
7919;SDS011;18778;47.610;9.776;2023-02-23T07:10:07;106.77;;;52.87;;
7919;SDS011;18778;47.610;9.776;2023-02-23T07:12:33;96.63;;;48.90;;
7919;SDS011;18778;47.610;9.776;2023-02-23T07:14:59;87.30;;;48.70;;
7919;SDS011;18778;47.610;9.776;2023-02-23T07:17:25;89.10;;;50.17;;
7919;SDS011;18778;47.610;9.776;2023-02-23T07:19:51;83.87;;;46.90;;
7919;SDS011;18778;47.610;9.776;2023-02-23T07:22:17;76.50;;;43.47;;
7919;SDS011;18778;47.610;9.776;2023-02-23T07:24:43;70.00;;;41.63;;
7919;SDS011;18778;47.610;9.776;2023-02-23T07:27:10;63.60;;;38.93;;
7919;SDS011;18778;47.610;9.776;2023-02-23T07:29:36;62.53;;;39.93;;
7919;SDS011;18778;47.610;9.776;2023-02-23T07:32:02;55.77;;;34.47;;
7919;SDS011;18778;47.610;9.776;2023-02-23T07:34:28;58.80;;;36.73;;
7919;SDS011;18778;47.610;9.776;2023-02-23T07:36:54;49.47;;;32.60;;
7919;SDS011;18778;47.610;9.776;2023-02-23T07:39:20;48.97;;;32.57;;
7919;SDS011;18778;47.610;9.776;2023-02-23T07:41:46;47.50;;;32.57;;
7919;SDS011;18778;47.610;9.776;2023-02-23T07:44:12;47.73;;;32.67;;
7919;SDS011;18778;47.610;9.776;2023-02-23T07:46:38;48.50;;;32.73;;
7919;SDS011;18778;47.610;9.776;2023-02-23T07:49:04;43.67;;;29.93;;
7919;SDS011;18778;47.610;9.776;2023-02-23T07:51:30;44.17;;;28.80;;
7919;SDS011;18778;47.610;9.776;2023-02-23T07:53:56;35.23;;;23.97;;
7919;SDS011;18778;47.610;9.776;2023-02-23T07:56:27;34.23;;;23.60;;
7919;SDS011;18778;47.610;9.776;2023-02-23T07:58:53;31.73;;;22.60;;
7919;SDS011;18778;47.610;9.776;2023-02-23T08:01:19;31.23;;;22.53;;
7919;SDS011;18778;47.610;9.776;2023-02-23T08:03:45;32.53;;;22.40;;
7919;SDS011;18778;47.610;9.776;2023-02-23T08:06:14;32.37;;;22.47;;
7919;SDS011;18778;47.610;9.776;2023-02-23T08:08:40;34.97;;;22.40;;
7919;SDS011;18778;47.610;9.776;2023-02-23T08:11:06;29.50;;;20.17;;
7919;SDS011;18778;47.610;9.776;2023-02-23T08:13:32;32.97;;;21.83;;
7919;SDS011;18778;47.610;9.776;2023-02-23T08:16:00;33.63;;;22.27;;
7919;SDS011;18778;47.610;9.776;2023-02-23T08:18:26;32.87;;;23.63;;
7919;SDS011;18778;47.610;9.776;2023-02-23T08:21:01;30.80;;;20.70;;
7919;SDS011;18778;47.610;9.776;2023-02-23T08:23:28;29.07;;;21.07;;
7919;SDS011;18778;47.610;9.776;2023-02-23T08:25:54;30.07;;;21.47;;
7919;SDS011;18778;47.610;9.776;2023-02-23T08:28:20;31.10;;;22.00;;
7919;SDS011;18778;47.610;9.776;2023-02-23T08:30:46;31.73;;;21.17;;
7919;SDS011;18778;47.610;9.776;2023-02-23T08:33:12;34.47;;;23.10;;
7919;SDS011;18778;47.610;9.776;2023-02-23T08:35:38;33.03;;;23.27;;
7919;SDS011;18778;47.610;9.776;2023-02-23T08:38:04;31.90;;;22.67;;
7919;SDS011;18778;47.610;9.776;2023-02-23T08:40:30;28.00;;;20.40;;
7919;SDS011;18778;47.610;9.776;2023-02-23T08:42:56;31.37;;;21.90;;
7919;SDS011;18778;47.610;9.776;2023-02-23T08:45:22;28.43;;;19.93;;
7919;SDS011;18778;47.610;9.776;2023-02-23T08:47:48;27.53;;;20.03;;
7919;SDS011;18778;47.610;9.776;2023-02-23T08:50:14;28.07;;;19.40;;
7919;SDS011;18778;47.610;9.776;2023-02-23T08:52:41;25.23;;;17.83;;
7919;SDS011;18778;47.610;9.776;2023-02-23T08:55:07;23.83;;;17.40;;
7919;SDS011;18778;47.610;9.776;2023-02-23T08:57:35;25.33;;;17.43;;
7919;SDS011;18778;47.610;9.776;2023-02-23T09:00:02;22.93;;;16.23;;
7919;SDS011;18778;47.610;9.776;2023-02-23T09:02:35;22.03;;;16.33;;
7919;SDS011;18778;47.610;9.776;2023-02-23T09:05:01;20.57;;;15.77;;
7919;SDS011;18778;47.610;9.776;2023-02-23T09:07:27;20.73;;;15.07;;
7919;SDS011;18778;47.610;9.776;2023-02-23T09:09:56;22.10;;;15.90;;
7919;SDS011;18778;47.610;9.776;2023-02-23T09:12:23;20.67;;;14.67;;
7919;SDS011;18778;47.610;9.776;2023-02-23T09:14:49;23.63;;;15.33;;
7919;SDS011;18778;47.610;9.776;2023-02-23T09:17:17;19.17;;;14.43;;
7919;SDS011;18778;47.610;9.776;2023-02-23T09:19:43;17.40;;;13.80;;
7919;SDS011;18778;47.610;9.776;2023-02-23T09:22:10;14.73;;;12.60;;
7919;SDS011;18778;47.610;9.776;2023-02-23T09:24:36;22.60;;;14.30;;
7919;SDS011;18778;47.610;9.776;2023-02-23T09:27:02;21.53;;;14.17;;
7919;SDS011;18778;47.610;9.776;2023-02-23T09:29:28;21.23;;;13.70;;
7919;SDS011;18778;47.610;9.776;2023-02-23T09:31:55;19.40;;;13.90;;
7919;SDS011;18778;47.610;9.776;2023-02-23T09:34:22;17.17;;;11.37;;
7919;SDS011;18778;47.610;9.776;2023-02-23T09:36:48;26.07;;;13.70;;
7919;SDS011;18778;47.610;9.776;2023-02-23T09:39:15;15.93;;;11.97;;
7919;SDS011;18778;47.610;9.776;2023-02-23T09:41:59;13.97;;;10.50;;
7919;SDS011;18778;47.610;9.776;2023-02-23T09:47:12;14.03;;;10.37;;
7919;SDS011;18778;47.610;9.776;2023-02-23T09:49:41;12.87;;;10.63;;
7919;SDS011;18778;47.610;9.776;2023-02-23T09:52:14;16.63;;;11.17;;
7919;SDS011;18778;47.610;9.776;2023-02-23T09:54:41;14.47;;;10.90;;
7919;SDS011;18778;47.610;9.776;2023-02-23T09:57:09;11.80;;;10.03;;
7919;SDS011;18778;47.610;9.776;2023-02-23T09:59:37;16.40;;;11.57;;
7919;SDS011;18778;47.610;9.776;2023-02-23T10:04:46;14.33;;;9.67;;
7919;SDS011;18778;47.610;9.776;2023-02-23T10:12:17;13.13;;;9.83;;
7919;SDS011;18778;47.610;9.776;2023-02-23T10:19:54;9.63;;;7.80;;
7919;SDS011;18778;47.610;9.776;2023-02-23T10:22:22;10.83;;;8.40;;
7919;SDS011;18778;47.610;9.776;2023-02-23T10:24:54;10.10;;;8.30;;
7919;SDS011;18778;47.610;9.776;2023-02-23T10:27:23;13.13;;;8.63;;
7919;SDS011;18778;47.610;9.776;2023-02-23T10:29:55;9.77;;;7.63;;
7919;SDS011;18778;47.610;9.776;2023-02-23T10:32:23;8.50;;;7.40;;
7919;SDS011;18778;47.610;9.776;2023-02-23T10:34:52;9.90;;;7.20;;
7919;SDS011;18778;47.610;9.776;2023-02-23T10:37:18;7.53;;;5.80;;
7919;SDS011;18778;47.610;9.776;2023-02-23T10:39:44;9.27;;;7.90;;
7919;SDS011;18778;47.610;9.776;2023-02-23T10:42:23;9.77;;;7.53;;
7919;SDS011;18778;47.610;9.776;2023-02-23T10:44:52;9.13;;;6.67;;
7919;SDS011;18778;47.610;9.776;2023-02-23T10:47:20;7.20;;;6.50;;
7919;SDS011;18778;47.610;9.776;2023-02-23T10:49:48;6.03;;;5.33;;
7919;SDS011;18778;47.610;9.776;2023-02-23T10:52:16;6.73;;;5.27;;
7919;SDS011;18778;47.610;9.776;2023-02-23T10:54:44;5.63;;;4.57;;
7919;SDS011;18778;47.610;9.776;2023-02-23T10:57:12;7.67;;;5.67;;
7919;SDS011;18778;47.610;9.776;2023-02-23T10:59:57;6.60;;;5.83;;
7919;SDS011;18778;47.610;9.776;2023-02-23T11:02:24;7.17;;;5.40;;
7919;SDS011;18778;47.610;9.776;2023-02-23T11:04:51;6.93;;;5.43;;
7919;SDS011;18778;47.610;9.776;2023-02-23T11:07:20;6.70;;;5.00;;
7919;SDS011;18778;47.610;9.776;2023-02-23T11:09:47;5.67;;;5.00;;
7919;SDS011;18778;47.610;9.776;2023-02-23T11:12:28;5.30;;;4.80;;
7919;SDS011;18778;47.610;9.776;2023-02-23T11:15:00;7.20;;;5.23;;
7919;SDS011;18778;47.610;9.776;2023-02-23T11:17:44;6.73;;;4.83;;
7919;SDS011;18778;47.610;9.776;2023-02-23T11:22:42;5.93;;;4.70;;
7919;SDS011;18778;47.610;9.776;2023-02-23T11:25:13;6.33;;;5.23;;
7919;SDS011;18778;47.610;9.776;2023-02-23T11:27:40;7.03;;;6.13;;
7919;SDS011;18778;47.610;9.776;2023-02-23T11:30:11;6.63;;;5.53;;
7919;SDS011;18778;47.610;9.776;2023-02-23T11:32:38;8.67;;;5.43;;
7919;SDS011;18778;47.610;9.776;2023-02-23T11:37:45;5.60;;;4.47;;
7919;SDS011;18778;47.610;9.776;2023-02-23T11:40:19;7.90;;;4.27;;
7919;SDS011;18778;47.610;9.776;2023-02-23T11:42:50;4.97;;;4.00;;
7919;SDS011;18778;47.610;9.776;2023-02-23T11:45:17;4.97;;;4.47;;
7919;SDS011;18778;47.610;9.776;2023-02-23T11:47:47;6.80;;;4.60;;
7919;SDS011;18778;47.610;9.776;2023-02-23T11:50:30;5.33;;;4.70;;
7919;SDS011;18778;47.610;9.776;2023-02-23T11:53:33;4.90;;;3.90;;
7919;SDS011;18778;47.610;9.776;2023-02-23T11:55:52;6.07;;;4.10;;
7919;SDS011;18778;47.610;9.776;2023-02-23T12:01:00;7.00;;;4.60;;
7919;SDS011;18778;47.610;9.776;2023-02-23T12:03:28;5.20;;;3.67;;
7919;SDS011;18778;47.610;9.776;2023-02-23T12:05:55;7.20;;;4.97;;
7919;SDS011;18778;47.610;9.776;2023-02-23T12:08:26;5.33;;;4.70;;
7919;SDS011;18778;47.610;9.776;2023-02-23T12:10:57;5.67;;;4.40;;
7919;SDS011;18778;47.610;9.776;2023-02-23T12:13:32;5.97;;;4.23;;
7919;SDS011;18778;47.610;9.776;2023-02-23T12:16:45;5.83;;;4.40;;
7919;SDS011;18778;47.610;9.776;2023-02-23T12:21:35;4.93;;;4.20;;
7919;SDS011;18778;47.610;9.776;2023-02-23T12:24:19;5.07;;;4.40;;
7919;SDS011;18778;47.610;9.776;2023-02-23T12:26:56;8.00;;;4.57;;
7919;SDS011;18778;47.610;9.776;2023-02-23T12:32:03;5.50;;;4.93;;
7919;SDS011;18778;47.610;9.776;2023-02-23T12:34:40;7.33;;;5.13;;
7919;SDS011;18778;47.610;9.776;2023-02-23T12:37:27;8.33;;;5.53;;
7919;SDS011;18778;47.610;9.776;2023-02-23T12:40:02;11.07;;;6.07;;
7919;SDS011;18778;47.610;9.776;2023-02-23T12:45:04;8.60;;;6.73;;
7919;SDS011;18778;47.610;9.776;2023-02-23T12:47:46;8.30;;;6.10;;
7919;SDS011;18778;47.610;9.776;2023-02-23T12:50:32;12.07;;;7.00;;
7919;SDS011;18778;47.610;9.776;2023-02-23T12:53:06;9.27;;;6.13;;
7919;SDS011;18778;47.610;9.776;2023-02-23T12:55:56;9.13;;;6.53;;
7919;SDS011;18778;47.610;9.776;2023-02-23T12:58:41;6.70;;;5.73;;
7919;SDS011;18778;47.610;9.776;2023-02-23T13:01:23;8.00;;;6.30;;
7919;SDS011;18778;47.610;9.776;2023-02-23T13:09:37;8.60;;;6.23;;
7919;SDS011;18778;47.610;9.776;2023-02-23T13:15:26;7.33;;;5.70;;
7919;SDS011;18778;47.610;9.776;2023-02-23T13:17:56;7.03;;;5.70;;
7919;SDS011;18778;47.610;9.776;2023-02-23T13:20:41;9.13;;;6.27;;
7919;SDS011;18778;47.610;9.776;2023-02-23T13:23:20;9.13;;;5.40;;
7919;SDS011;18778;47.610;9.776;2023-02-23T13:31:27;7.90;;;5.83;;
7919;SDS011;18778;47.610;9.776;2023-02-23T13:33:56;8.60;;;5.63;;
7919;SDS011;18778;47.610;9.776;2023-02-23T13:36:23;6.63;;;5.00;;
7919;SDS011;18778;47.610;9.776;2023-02-23T13:41:44;10.13;;;5.60;;
7919;SDS011;18778;47.610;9.776;2023-02-23T13:49:40;9.40;;;5.03;;
7919;SDS011;18778;47.610;9.776;2023-02-23T13:52:28;10.20;;;4.53;;
7919;SDS011;18778;47.610;9.776;2023-02-23T13:55:03;10.27;;;5.27;;
7919;SDS011;18778;47.610;9.776;2023-02-23T13:57:49;7.60;;;4.43;;
7919;SDS011;18778;47.610;9.776;2023-02-23T14:00:19;11.87;;;5.10;;
7919;SDS011;18778;47.610;9.776;2023-02-23T14:02:46;7.57;;;4.57;;
7919;SDS011;18778;47.610;9.776;2023-02-23T14:07:53;7.77;;;4.20;;
7919;SDS011;18778;47.610;9.776;2023-02-23T14:10:22;13.23;;;4.20;;
7919;SDS011;18778;47.610;9.776;2023-02-23T14:13:23;6.93;;;4.57;;
7919;SDS011;18778;47.610;9.776;2023-02-23T14:16:06;11.27;;;5.17;;
7919;SDS011;18778;47.610;9.776;2023-02-23T14:19:29;6.27;;;4.23;;
7919;SDS011;18778;47.610;9.776;2023-02-23T14:21:58;5.57;;;4.70;;
7919;SDS011;18778;47.610;9.776;2023-02-23T14:24:27;10.03;;;5.43;;
7919;SDS011;18778;47.610;9.776;2023-02-23T14:29:38;12.40;;;5.00;;
7919;SDS011;18778;47.610;9.776;2023-02-23T14:34:53;8.13;;;5.20;;
7919;SDS011;18778;47.610;9.776;2023-02-23T14:40:04;9.37;;;5.63;;
7919;SDS011;18778;47.610;9.776;2023-02-23T14:42:32;10.73;;;5.37;;
7919;SDS011;18778;47.610;9.776;2023-02-23T14:45:03;11.90;;;4.80;;
7919;SDS011;18778;47.610;9.776;2023-02-23T14:47:50;7.93;;;4.53;;
7919;SDS011;18778;47.610;9.776;2023-02-23T14:50:30;9.83;;;5.30;;
7919;SDS011;18778;47.610;9.776;2023-02-23T14:52:58;10.50;;;5.13;;
7919;SDS011;18778;47.610;9.776;2023-02-23T14:55:26;8.90;;;4.30;;
7919;SDS011;18778;47.610;9.776;2023-02-23T14:57:53;9.03;;;4.53;;
7919;SDS011;18778;47.610;9.776;2023-02-23T15:00:21;8.87;;;4.50;;
7919;SDS011;18778;47.610;9.776;2023-02-23T15:02:56;12.87;;;5.33;;
7919;SDS011;18778;47.610;9.776;2023-02-23T15:05:24;8.93;;;5.13;;
7919;SDS011;18778;47.610;9.776;2023-02-23T15:07:56;10.63;;;4.50;;
7919;SDS011;18778;47.610;9.776;2023-02-23T15:10:25;11.20;;;5.20;;
7919;SDS011;18778;47.610;9.776;2023-02-23T15:13:09;14.93;;;5.73;;
7919;SDS011;18778;47.610;9.776;2023-02-23T15:15:44;10.97;;;4.73;;
7919;SDS011;18778;47.610;9.776;2023-02-23T15:21:32;10.10;;;4.40;;
7919;SDS011;18778;47.610;9.776;2023-02-23T15:24:08;10.63;;;4.10;;
7919;SDS011;18778;47.610;9.776;2023-02-23T15:26:36;8.43;;;4.50;;
7919;SDS011;18778;47.610;9.776;2023-02-23T15:29:04;10.20;;;4.50;;
7919;SDS011;18778;47.610;9.776;2023-02-23T15:31:52;14.47;;;5.10;;
7919;SDS011;18778;47.610;9.776;2023-02-23T15:34:25;9.17;;;4.57;;
7919;SDS011;18778;47.610;9.776;2023-02-23T15:37:04;9.83;;;4.50;;
7919;SDS011;18778;47.610;9.776;2023-02-23T15:39:37;8.83;;;4.13;;
7919;SDS011;18778;47.610;9.776;2023-02-23T15:42:12;6.67;;;4.27;;
7919;SDS011;18778;47.610;9.776;2023-02-23T15:44:41;8.13;;;4.23;;
7919;SDS011;18778;47.610;9.776;2023-02-23T15:47:09;12.47;;;4.57;;
7919;SDS011;18778;47.610;9.776;2023-02-23T15:49:44;12.47;;;4.67;;
7919;SDS011;18778;47.610;9.776;2023-02-23T15:52:17;7.87;;;4.37;;
7919;SDS011;18778;47.610;9.776;2023-02-23T15:54:49;9.37;;;4.50;;
7919;SDS011;18778;47.610;9.776;2023-02-23T15:57:24;8.50;;;4.93;;
7919;SDS011;18778;47.610;9.776;2023-02-23T15:59:56;12.60;;;5.53;;
7919;SDS011;18778;47.610;9.776;2023-02-23T16:02:23;14.33;;;5.03;;
7919;SDS011;18778;47.610;9.776;2023-02-23T16:04:49;8.30;;;5.73;;
7919;SDS011;18778;47.610;9.776;2023-02-23T16:07:21;13.47;;;7.90;;
7919;SDS011;18778;47.610;9.776;2023-02-23T16:09:52;11.13;;;7.70;;
7919;SDS011;18778;47.610;9.776;2023-02-23T16:12:30;12.93;;;8.50;;
7919;SDS011;18778;47.610;9.776;2023-02-23T16:15:00;12.80;;;8.57;;
7919;SDS011;18778;47.610;9.776;2023-02-23T16:17:42;11.83;;;8.10;;
7919;SDS011;18778;47.610;9.776;2023-02-23T16:22:40;13.07;;;8.57;;
7919;SDS011;18778;47.610;9.776;2023-02-23T16:25:14;15.03;;;8.10;;
7919;SDS011;18778;47.610;9.776;2023-02-23T16:27:42;10.40;;;8.00;;
7919;SDS011;18778;47.610;9.776;2023-02-23T16:30:19;11.13;;;8.20;;
7919;SDS011;18778;47.610;9.776;2023-02-23T16:32:48;17.33;;;9.17;;